createdAt,value
2022-08-17T00:01:00.778Z,74.73
2022-08-17T00:03:38.759Z,75.41
2022-08-17T00:06:14.081Z,75.84
2022-08-17T00:08:49.619Z,76.00
2022-08-17T00:11:25.130Z,75.99
2022-08-17T00:13:59.941Z,76.07
2022-08-17T00:16:57.190Z,76.09
2022-08-17T00:19:30.420Z,76.22
2022-08-17T00:22:32.107Z,76.24
2022-08-17T00:24:56.410Z,76.21
2022-08-17T00:27:28.678Z,76.85
2022-08-17T00:30:01.250Z,76.99
2022-08-17T00:33:22.800Z,77.34
2022-08-17T00:35:33.360Z,78.14
2022-08-17T00:38:09.919Z,79.55
2022-08-17T00:40:44.759Z,78.67
2022-08-17T00:43:20.383Z,78.57
2022-08-17T00:45:53.160Z,78.37
2022-08-17T00:48:29.823Z,78.30
2022-08-17T00:51:09.080Z,78.14
2022-08-17T00:53:45.202Z,78.63
2022-08-17T00:56:22.902Z,78.66
2022-08-17T00:58:57.259Z,78.35
2022-08-17T01:01:30.175Z,78.50
2022-08-17T01:04:06.080Z,78.86
2022-08-17T01:06:38.619Z,79.02
2022-08-17T01:09:12.059Z,78.63
2022-08-17T01:11:44.558Z,78.70
2022-08-17T01:14:16.780Z,78.70
2022-08-17T01:16:49.118Z,79.12
2022-08-17T01:19:29.181Z,79.44
2022-08-17T01:22:08.023Z,79.18
2022-08-17T01:24:46.259Z,79.76
2022-08-17T01:27:21.159Z,79.36
2022-08-17T01:29:57.306Z,79.97
2022-08-17T01:32:32.021Z,79.78
2022-08-17T01:35:04.098Z,80.58
2022-08-17T01:37:39.849Z,80.42
2022-08-17T01:40:20.140Z,80.54
2022-08-17T01:42:58.260Z,80.85
2022-08-17T01:45:34.548Z,80.95
2022-08-17T01:48:07.809Z,80.86
2022-08-17T01:50:41.218Z,81.15
2022-08-17T01:53:19.058Z,81.02
2022-08-17T01:56:00.380Z,82.16
2022-08-17T01:58:33.059Z,81.94
2022-08-17T02:01:05.059Z,82.05
2022-08-17T02:03:38.601Z,82.30
2022-08-17T02:06:27.130Z,82.48
2022-08-17T02:09:02.937Z,82.46
2022-08-17T02:11:41.020Z,82.78
2022-08-17T02:14:14.738Z,82.83
2022-08-17T02:16:47.718Z,82.42
2022-08-17T02:19:22.115Z,82.44
2022-08-17T02:21:57.239Z,82.72
2022-08-17T02:25:00.720Z,82.58
2022-08-17T02:28:18.159Z,82.61
2022-08-17T02:31:01.156Z,83.30
2022-08-17T02:33:41.852Z,83.27
2022-08-17T02:36:17.119Z,84.25
2022-08-17T02:38:49.082Z,84.30
2022-08-17T02:41:21.699Z,84.39
2022-08-17T02:43:56.841Z,84.49
2022-08-17T02:46:30.974Z,84.78
2022-08-17T02:49:03.059Z,84.24
2022-08-17T02:51:35.740Z,84.46
2022-08-17T02:54:39.372Z,84.57
2022-08-17T02:57:00.922Z,84.62
2022-08-17T02:59:35.838Z,84.20
2022-08-17T03:02:09.639Z,84.55
2022-08-17T03:04:42.399Z,84.71
2022-08-17T03:07:15.759Z,85.07
2022-08-17T03:09:48.080Z,84.88
2022-08-17T03:12:20.540Z,84.99
2022-08-17T03:14:55.360Z,85.12
2022-08-17T03:17:27.962Z,85.73
2022-08-17T03:20:00.097Z,85.50
2022-08-17T03:22:37.108Z,86.44
2022-08-17T03:25:27.780Z,86.26
2022-08-17T03:28:01.778Z,85.85
2022-08-17T03:30:37.903Z,86.21
2022-08-17T03:33:13.382Z,86.12
2022-08-17T03:35:45.841Z,86.60
2022-08-17T03:38:18.821Z,87.20
2022-08-17T03:40:56.464Z,87.61
2022-08-17T03:43:32.480Z,87.43
2022-08-17T03:46:34.458Z,87.43
2022-08-17T03:49:22.040Z,87.78
2022-08-17T03:52:06.401Z,87.36
2022-08-17T03:54:50.987Z,87.75
2022-08-17T03:57:22.943Z,87.31
2022-08-17T03:59:55.259Z,87.43
2022-08-17T04:02:33.689Z,88.27
2022-08-17T04:05:06.039Z,88.25
2022-08-17T04:07:38.018Z,87.95
2022-08-17T04:10:11.701Z,88.40
2022-08-17T04:12:50.120Z,87.32
2022-08-17T04:15:23.100Z,87.25
2022-08-17T04:17:58.702Z,87.09
2022-08-17T04:20:31.738Z,87.15
2022-08-17T04:23:06.459Z,86.92
2022-08-17T04:25:42.340Z,86.53
2022-08-17T04:28:15.859Z,86.87
2022-08-17T04:30:50.080Z,87.50
2022-08-17T04:33:26.681Z,87.27
2022-08-17T04:36:01.842Z,86.69
2022-08-17T04:38:36.660Z,86.67
2022-08-17T04:41:48.638Z,86.09
2022-08-17T04:44:36.972Z,85.57
2022-08-17T04:47:10.612Z,85.56
2022-08-17T04:49:47.460Z,85.08
2022-08-17T04:52:29.720Z,84.10
2022-08-17T04:55:13.580Z,83.51
2022-08-17T04:57:45.578Z,82.49
2022-08-17T05:00:18.188Z,82.30
2022-08-17T05:02:52.622Z,81.56
2022-08-17T05:05:30.361Z,81.54
2022-08-17T05:08:05.682Z,81.21
2022-08-17T05:10:39.260Z,80.13
2022-08-17T05:13:20.041Z,79.70
2022-08-17T05:15:53.700Z,79.37
2022-08-17T05:18:25.802Z,78.81
2022-08-17T05:21:00.977Z,78.56
2022-08-17T05:23:41.588Z,78.03
2022-08-17T05:26:25.787Z,78.01
2022-08-17T05:29:00.438Z,77.14
2022-08-17T05:31:34.663Z,76.60
2022-08-17T05:34:07.480Z,76.67
2022-08-17T05:36:44.352Z,76.14
2022-08-17T05:39:17.823Z,75.84
2022-08-17T05:41:51.218Z,75.09
2022-08-17T05:44:23.440Z,74.47
2022-08-17T05:46:56.781Z,74.13
2022-08-17T05:49:31.029Z,73.36
2022-08-17T05:52:26.760Z,72.49
2022-08-17T05:55:13.221Z,71.75
2022-08-17T05:58:01.682Z,71.00
2022-08-17T06:00:42.079Z,70.48
2022-08-17T06:03:30.540Z,70.00
2022-08-17T06:06:20.260Z,67.46
2022-08-17T06:09:14.488Z,65.26
2022-08-17T06:11:53.662Z,60.29
2022-08-17T06:14:42.599Z,58.31
2022-08-17T06:17:18.026Z,58.06
2022-08-17T06:19:55.984Z,54.30
2022-08-17T06:22:33.204Z,50.69
2022-08-17T06:25:15.722Z,53.66
2022-08-17T06:27:53.988Z,49.39
2022-08-17T06:30:28.612Z,41.73
2022-08-17T06:33:25.660Z,43.80
2022-08-17T06:36:09.488Z,42.65
2022-08-17T06:38:56.740Z,43.27
2022-08-17T06:41:43.200Z,41.71
2022-08-17T06:44:43.169Z,43.36
2022-08-17T06:47:28.116Z,38.48
2022-08-17T06:50:14.699Z,38.95
2022-08-17T06:52:55.989Z,38.72
2022-08-17T06:55:37.951Z,41.00
2022-08-17T06:58:16.984Z,38.14
2022-08-17T07:00:56.610Z,38.39
2022-08-17T07:03:38.802Z,36.76
2022-08-17T07:06:17.940Z,34.61
2022-08-17T07:08:59.300Z,33.45
2022-08-17T07:11:37.201Z,38.11
2022-08-17T07:14:30.641Z,31.85
2022-08-17T07:17:09.300Z,35.73
2022-08-17T07:19:45.735Z,31.64
2022-08-17T07:22:26.183Z,30.45
2022-08-17T07:25:00.961Z,33.85
2022-08-17T07:27:38.939Z,33.88
2022-08-17T07:30:19.943Z,33.78
2022-08-17T07:32:57.642Z,34.73
2022-08-17T07:35:41.208Z,31.41
2022-08-17T07:38:25.603Z,32.90
2022-08-17T07:41:07.860Z,32.89
2022-08-17T07:43:48.681Z,31.35
2022-08-17T07:46:37.982Z,30.60
2022-08-17T07:49:27.721Z,32.15
2022-08-17T07:52:24.319Z,31.49
2022-08-17T07:54:59.941Z,28.23
2022-08-17T07:57:39.929Z,27.43
2022-08-17T08:00:31.590Z,28.18
2022-08-17T08:03:18.142Z,27.07
2022-08-17T08:05:57.999Z,29.69
2022-08-17T08:08:33.219Z,26.80
2022-08-17T08:11:09.485Z,27.03
2022-08-17T08:13:45.957Z,29.46
2022-08-17T08:16:26.002Z,27.95
2022-08-17T08:19:03.088Z,30.43
2022-08-17T08:21:46.720Z,27.79
2022-08-17T08:24:31.965Z,27.62
2022-08-17T08:27:16.280Z,26.71
2022-08-17T08:29:56.141Z,28.33
2022-08-17T08:32:44.540Z,25.16
2022-08-17T08:35:31.780Z,26.28
2022-08-17T08:38:20.362Z,24.55
2022-08-17T08:41:09.220Z,27.71
2022-08-17T08:44:01.002Z,27.59
2022-08-17T08:46:42.609Z,26.00
2022-08-17T08:50:03.482Z,22.77
2022-08-17T08:52:55.940Z,22.06
2022-08-17T08:55:48.558Z,26.04
2022-08-17T08:58:41.734Z,24.50
2022-08-17T09:01:27.913Z,25.36
2022-08-17T09:04:24.550Z,23.18
2022-08-17T09:07:12.477Z,24.12
2022-08-17T09:10:09.796Z,24.24
2022-08-17T09:12:54.443Z,24.18
2022-08-17T09:15:32.456Z,22.21
2022-08-17T09:19:01.747Z,23.40
2022-08-17T09:21:11.673Z,22.58
2022-08-17T09:23:49.874Z,22.94
2022-08-17T09:26:31.219Z,23.47
2022-08-17T09:29:08.974Z,21.66
2022-08-17T09:31:49.133Z,23.16
2022-08-17T09:34:33.280Z,23.20
2022-08-17T09:37:22.284Z,22.77
2022-08-17T09:40:07.698Z,21.46
2022-08-17T09:42:48.842Z,22.69
2022-08-17T09:45:33.243Z,24.22
2022-08-17T09:48:09.364Z,24.64
2022-08-17T09:51:03.663Z,22.10
2022-08-17T09:53:39.761Z,22.20
2022-08-17T09:56:42.448Z,23.71
2022-08-17T09:59:45.063Z,23.34
2022-08-17T10:02:46.243Z,23.82
2022-08-17T10:05:25.049Z,22.80
2022-08-17T10:08:09.541Z,21.16
2022-08-17T10:10:56.870Z,23.32
2022-08-17T10:13:38.924Z,22.60
2022-08-17T10:16:23.848Z,22.50
2022-08-17T10:19:08.103Z,21.29
2022-08-17T10:22:00.646Z,22.94
2022-08-17T10:25:21.149Z,21.89
2022-08-17T10:27:49.052Z,25.05
2022-08-17T10:30:25.390Z,23.15
2022-08-17T10:33:03.886Z,22.30
2022-08-17T10:35:45.487Z,24.28
2022-08-17T10:38:46.390Z,22.78
2022-08-17T10:41:27.366Z,24.63
2022-08-17T10:44:38.730Z,22.88
2022-08-17T10:47:09.746Z,21.66
2022-08-17T10:49:48.155Z,21.92
2022-08-17T10:52:55.328Z,22.83
2022-08-17T10:55:28.169Z,23.43
2022-08-17T10:58:24.743Z,22.01
2022-08-17T11:01:09.319Z,24.09
2022-08-17T11:03:55.129Z,24.34
2022-08-17T11:06:48.967Z,25.31
2022-08-17T11:09:36.428Z,25.06
2022-08-17T11:12:22.728Z,24.46
2022-08-17T11:15:17.647Z,23.68
2022-08-17T11:18:16.131Z,23.10
2022-08-17T11:21:35.069Z,21.11
2022-08-17T11:24:31.724Z,22.56
2022-08-17T11:27:22.835Z,22.75
2022-08-17T11:30:01.834Z,21.13
2022-08-17T11:32:47.560Z,20.45
2022-08-17T11:35:41.937Z,22.17
2022-08-17T11:38:37.914Z,22.07
2022-08-17T11:41:24.300Z,23.30
2022-08-17T11:44:20.411Z,23.90
2022-08-17T11:47:25.211Z,22.09
2022-08-17T11:50:46.031Z,23.84
2022-08-17T11:53:47.596Z,21.81
2022-08-17T11:56:42.198Z,23.49
2022-08-17T11:59:44.136Z,22.89
2022-08-17T12:02:35.444Z,21.47
2022-08-17T12:05:28.516Z,21.93
2022-08-17T12:08:18.076Z,22.72
2022-08-17T12:11:03.556Z,23.33
2022-08-17T12:13:47.901Z,22.91
2022-08-17T12:16:21.365Z,23.21
2022-08-17T12:18:59.665Z,22.68
2022-08-17T12:21:46.525Z,22.83
2022-08-17T12:24:31.766Z,22.41
2022-08-17T12:27:09.669Z,23.83
2022-08-17T12:29:47.486Z,22.73
2022-08-17T12:32:24.025Z,23.12
2022-08-17T12:34:56.847Z,23.19
2022-08-17T12:37:32.485Z,22.78
2022-08-17T12:40:09.182Z,24.77
2022-08-17T12:42:42.883Z,22.68
2022-08-17T12:45:32.725Z,22.37
2022-08-17T12:48:07.956Z,23.49
2022-08-17T12:50:43.914Z,23.50
2022-08-17T12:53:18.623Z,22.88
2022-08-17T12:55:52.420Z,23.01
2022-08-17T12:58:28.655Z,23.00
2022-08-17T13:01:08.953Z,23.10
2022-08-17T13:03:45.796Z,23.71
2022-08-17T13:06:31.807Z,23.48
2022-08-17T13:09:13.241Z,25.80
2022-08-17T13:11:54.162Z,24.96
2022-08-17T13:14:26.281Z,24.90
2022-08-17T13:17:11.136Z,24.03
2022-08-17T13:19:53.099Z,24.21
2022-08-17T13:22:27.363Z,24.30
2022-08-17T13:25:11.420Z,23.36
2022-08-17T13:27:46.441Z,23.81
2022-08-17T13:30:28.385Z,24.96
2022-08-17T13:33:05.039Z,25.52
2022-08-17T13:35:47.075Z,26.34
2022-08-17T13:38:41.361Z,24.91
2022-08-17T13:41:34.810Z,23.74
2022-08-17T13:44:38.158Z,24.33
2022-08-17T13:47:22.358Z,24.46
2022-08-17T13:49:58.438Z,24.17
2022-08-17T13:52:41.139Z,24.35
2022-08-17T13:55:23.676Z,24.21
2022-08-17T13:58:06.686Z,23.87
2022-08-17T14:00:41.139Z,23.78
2022-08-17T14:03:13.098Z,24.25
2022-08-17T14:05:50.435Z,24.46
2022-08-17T14:08:24.309Z,23.66
2022-08-17T14:11:07.813Z,26.29
2022-08-17T14:13:41.909Z,26.20
2022-08-17T14:16:14.086Z,26.40
2022-08-17T14:18:56.765Z,24.40
2022-08-17T14:21:35.768Z,26.41
2022-08-17T14:24:16.327Z,23.88
2022-08-17T14:26:48.575Z,24.45
2022-08-17T14:29:20.560Z,26.69
2022-08-17T14:31:54.738Z,26.47
2022-08-17T14:34:28.136Z,26.04
2022-08-17T14:37:03.130Z,25.28
2022-08-17T14:39:35.323Z,24.16
2022-08-17T14:42:07.989Z,24.04
2022-08-17T14:44:40.006Z,24.39
2022-08-17T14:47:16.050Z,24.49
2022-08-17T14:49:48.586Z,23.87
2022-08-17T14:52:24.589Z,23.48
2022-08-17T14:54:56.731Z,24.16
2022-08-17T14:57:34.175Z,23.70
2022-08-17T15:00:10.488Z,23.83
2022-08-17T15:02:54.276Z,23.78
2022-08-17T15:05:29.579Z,23.72
2022-08-17T15:08:16.876Z,24.42
2022-08-17T15:10:53.347Z,24.03
2022-08-17T15:13:29.222Z,28.91
2022-08-17T15:16:04.282Z,25.08
2022-08-17T15:18:36.688Z,25.41
2022-08-17T15:21:10.855Z,25.26
2022-08-17T15:23:45.817Z,24.78
2022-08-17T15:26:20.643Z,24.84
2022-08-17T15:28:56.899Z,27.03
2022-08-17T15:31:32.265Z,31.11
2022-08-17T15:34:05.597Z,31.31
2022-08-17T15:36:43.877Z,31.53
2022-08-17T15:39:26.709Z,28.13
2022-08-17T15:41:59.287Z,25.43
2022-08-17T15:44:32.753Z,26.35
2022-08-17T15:47:07.181Z,25.35
2022-08-17T15:49:42.542Z,25.65
2022-08-17T15:52:20.163Z,25.41
2022-08-17T15:55:00.165Z,25.76
2022-08-17T15:57:32.080Z,25.95
2022-08-17T16:00:04.843Z,25.85
2022-08-17T16:03:44.370Z,26.09
2022-08-17T16:05:32.034Z,25.40
2022-08-17T16:08:04.821Z,25.90
2022-08-17T16:10:40.542Z,26.04
2022-08-17T16:13:17.346Z,27.90
2022-08-17T16:15:57.533Z,25.93
2022-08-17T16:18:32.478Z,26.39
2022-08-17T16:21:22.951Z,26.46
2022-08-17T16:23:57.885Z,25.74
2022-08-17T16:26:34.065Z,26.11
2022-08-17T16:29:13.564Z,26.97
2022-08-17T16:31:46.095Z,27.20
2022-08-17T16:34:21.674Z,28.11
2022-08-17T16:36:56.533Z,29.32
2022-08-17T16:39:33.577Z,27.96
2022-08-17T16:42:09.734Z,29.32
2022-08-17T16:44:42.176Z,26.24
2022-08-17T16:47:32.733Z,25.89
2022-08-17T16:50:20.554Z,26.54
2022-08-17T16:53:03.435Z,27.95
2022-08-17T16:55:53.714Z,27.74
2022-08-17T16:58:46.273Z,30.91
2022-08-17T17:02:01.757Z,27.44
2022-08-17T17:04:58.492Z,28.49
2022-08-17T17:08:01.088Z,27.82
2022-08-17T17:10:39.074Z,27.65
2022-08-17T17:13:17.035Z,28.39
2022-08-17T17:15:57.756Z,28.30
2022-08-17T17:18:40.592Z,28.81
2022-08-17T17:21:17.373Z,28.94
2022-08-17T17:23:58.194Z,29.06
2022-08-17T17:26:47.255Z,28.75
2022-08-17T17:30:29.376Z,29.11
2022-08-17T17:33:12.314Z,29.25
2022-08-17T17:35:50.294Z,29.12
2022-08-17T17:38:29.172Z,29.26
2022-08-17T17:41:09.153Z,29.62
2022-08-17T17:43:41.936Z,29.60
2022-08-17T17:46:28.063Z,29.76
2022-08-17T17:49:07.184Z,29.89
2022-08-17T17:52:09.361Z,29.46
2022-08-17T17:55:05.754Z,30.69
2022-08-17T17:57:56.203Z,29.80
2022-08-17T18:00:36.534Z,31.25
2022-08-17T18:03:38.623Z,32.92
2022-08-17T18:06:24.056Z,33.42
2022-08-17T18:09:06.335Z,35.13
2022-08-17T18:11:54.872Z,34.74
2022-08-17T18:14:46.573Z,34.90
2022-08-17T18:17:18.877Z,35.81
2022-08-17T18:19:50.792Z,36.28
2022-08-17T18:22:28.097Z,36.87
2022-08-17T18:25:00.312Z,36.92
2022-08-17T18:27:41.455Z,37.28
2022-08-17T18:30:30.636Z,37.88
2022-08-17T18:33:24.873Z,38.01
2022-08-17T18:35:58.902Z,39.11
2022-08-17T18:38:38.875Z,39.89
2022-08-17T18:41:24.695Z,39.80
2022-08-17T18:44:05.973Z,39.75
2022-08-17T18:46:40.496Z,40.06
2022-08-17T18:49:31.294Z,39.89
2022-08-17T18:52:14.972Z,40.31
2022-08-17T18:55:09.086Z,40.26
2022-08-17T18:57:44.966Z,40.95
2022-08-17T19:00:39.757Z,41.33
2022-08-17T19:03:28.735Z,42.16
2022-08-17T19:06:20.875Z,41.70
2022-08-17T19:08:53.110Z,42.26
2022-08-17T19:11:32.874Z,42.00
2022-08-17T19:14:21.114Z,42.73
2022-08-17T19:16:59.413Z,41.95
2022-08-17T19:19:37.055Z,42.20
2022-08-17T19:22:29.057Z,42.57
2022-08-17T19:25:16.054Z,42.46
2022-08-17T19:27:58.483Z,43.26
2022-08-17T19:30:31.115Z,42.97
2022-08-17T19:33:05.474Z,43.78
2022-08-17T19:35:52.614Z,41.97
2022-08-17T19:38:37.675Z,40.27
2022-08-17T19:41:16.715Z,42.27
2022-08-17T19:44:16.403Z,40.82
2022-08-17T19:47:00.681Z,41.49
2022-08-17T19:49:47.077Z,42.03
2022-08-17T19:52:40.833Z,42.25
2022-08-17T19:55:22.694Z,42.78
2022-08-17T19:58:07.738Z,40.91
2022-08-17T20:00:52.517Z,41.97
2022-08-17T20:03:29.773Z,43.62
2022-08-17T20:06:13.471Z,42.04
2022-08-17T20:08:57.561Z,40.92
2022-08-17T20:11:37.614Z,42.44
2022-08-17T20:14:15.254Z,41.51
2022-08-17T20:16:50.318Z,41.34
2022-08-17T20:19:31.402Z,42.19
2022-08-17T20:22:07.573Z,41.33
2022-08-17T20:24:47.374Z,41.58
2022-08-17T20:27:27.994Z,42.88
2022-08-17T20:30:13.033Z,43.38
2022-08-17T20:32:59.394Z,43.49
2022-08-17T20:35:35.198Z,44.75
2022-08-17T20:38:13.460Z,43.23
2022-08-17T20:41:13.453Z,42.87
2022-08-17T20:43:52.753Z,43.11
2022-08-17T20:46:44.855Z,42.70
2022-08-17T20:49:27.573Z,43.26
2022-08-17T20:52:05.294Z,42.59
2022-08-17T20:54:51.222Z,42.61
2022-08-17T20:57:49.376Z,42.44
2022-08-17T21:00:46.914Z,42.70
2022-08-17T21:03:51.913Z,42.64
2022-08-17T21:06:29.254Z,42.18
2022-08-17T21:09:22.513Z,42.86
2022-08-17T21:12:05.623Z,42.52
2022-08-17T21:14:58.998Z,42.68
2022-08-17T21:17:53.537Z,43.57
2022-08-17T21:20:42.895Z,43.62
2022-08-17T21:23:40.754Z,43.44
2022-08-17T21:26:30.365Z,44.34
2022-08-17T21:29:30.418Z,43.84
2022-08-17T21:32:24.705Z,45.18
2022-08-17T21:35:28.590Z,45.56
2022-08-17T21:38:06.973Z,45.16
2022-08-17T21:40:47.334Z,45.61
2022-08-17T21:43:29.833Z,45.97
2022-08-17T21:46:07.985Z,46.14
2022-08-17T21:48:48.184Z,45.99
2022-08-17T21:51:24.113Z,46.07
2022-08-17T21:53:59.675Z,46.54
2022-08-17T21:56:37.906Z,46.82
2022-08-17T21:59:19.698Z,48.38
2022-08-17T22:01:58.314Z,47.32
2022-08-17T22:04:33.936Z,47.94
2022-08-17T22:07:09.075Z,48.02
2022-08-17T22:09:46.615Z,48.72
2022-08-17T22:12:24.495Z,48.61
2022-08-17T22:15:04.579Z,48.22
2022-08-17T22:17:41.737Z,49.23
2022-08-17T22:20:18.302Z,48.77
2022-08-17T22:23:32.674Z,49.36
2022-08-17T22:26:09.567Z,49.38
2022-08-17T22:28:52.779Z,49.77
2022-08-17T22:31:27.634Z,50.31
2022-08-17T22:34:16.118Z,49.63
2022-08-17T22:36:48.323Z,51.25
2022-08-17T22:39:45.711Z,49.93
2022-08-17T22:42:18.696Z,50.38
2022-08-17T22:44:55.435Z,51.61
2022-08-17T22:47:39.802Z,51.18
2022-08-17T22:50:24.515Z,51.30
2022-08-17T22:53:14.634Z,51.87
2022-08-17T22:56:08.297Z,53.01
2022-08-17T22:59:04.655Z,52.27
2022-08-17T23:01:40.935Z,52.52
2022-08-17T23:04:16.616Z,51.84
2022-08-17T23:06:49.035Z,51.22
2022-08-17T23:09:21.198Z,52.17
2022-08-17T23:11:58.956Z,52.35
2022-08-17T23:14:32.717Z,51.98
2022-08-17T23:17:08.414Z,52.70
2022-08-17T23:19:58.935Z,52.21
2022-08-17T23:22:32.584Z,52.25
2022-08-17T23:25:06.254Z,53.31
2022-08-17T23:27:38.598Z,52.23
2022-08-17T23:30:13.176Z,53.35
2022-08-17T23:32:53.704Z,53.37
2022-08-17T23:35:39.983Z,54.28
2022-08-17T23:38:16.217Z,54.01
2022-08-17T23:40:48.536Z,54.03
2022-08-17T23:43:25.228Z,55.01
2022-08-17T23:46:04.114Z,54.72
2022-08-17T23:48:42.595Z,55.43
2022-08-17T23:51:19.215Z,55.47
2022-08-17T23:53:54.496Z,55.47
2022-08-17T23:56:27.357Z,56.29
2022-08-17T23:59:00.435Z,56.42
